Time;durP1;ratioP1;P1;durP2;ratioP2;P2;SDS_P1;SDS_P2;PMS_P1;PMS_P2;Temp;Humidity;BMP_temperature;BMP_pressure;BME280_temperature;BME280_humidity;BME280_pressure;Samples;Min_cycle;Max_cycle;Signal;HPM_P1;HPM_P2
2021/10/24 00:02:08;;;;;;;2.60;1.80;;;8.10;99.90;;;;;;5094074;28;20242;-73
2021/10/24 00:04:34;;;;;;;2.70;1.83;;;8.10;99.90;;;;;;5094001;28;20421;-73
2021/10/24 00:07:00;;;;;;;2.07;1.77;;;8.20;99.90;;;;;;5092693;28;20232;-73
2021/10/24 00:09:26;;;;;;;3.20;2.10;;;8.20;99.90;;;;;;5094037;28;20628;-73
2021/10/24 00:11:51;;;;;;;3.03;2.30;;;8.20;99.90;;;;;;5093804;28;20491;-72
2021/10/24 00:14:17;;;;;;;2.50;2.30;;;8.10;99.90;;;;;;5093927;28;20196;-73
2021/10/24 00:16:43;;;;;;;2.70;1.63;;;8.10;99.90;;;;;;5093754;28;20189;-72
2021/10/24 00:19:08;;;;;;;2.80;2.27;;;8.20;99.90;;;;;;5093736;28;20777;-72
2021/10/24 00:21:34;;;;;;;7.50;2.10;;;8.20;99.90;;;;;;5093878;28;20175;-72
2021/10/24 00:23:59;;;;;;;2.77;2.43;;;8.20;99.90;;;;;;5093761;28;20178;-72
2021/10/24 00:26:25;;;;;;;3.10;2.30;;;8.20;99.90;;;;;;5093761;28;20182;-72
2021/10/24 00:28:50;;;;;;;2.23;1.47;;;8.20;99.90;;;;;;5093462;28;20195;-72
2021/10/24 00:31:16;;;;;;;3.27;1.60;;;8.20;99.90;;;;;;5093519;28;20181;-72
2021/10/24 00:33:41;;;;;;;1.63;1.50;;;8.20;99.90;;;;;;5093205;28;20201;-72
2021/10/24 00:36:07;;;;;;;1.73;1.63;;;8.20;99.90;;;;;;5093543;28;20164;-72
2021/10/24 00:38:32;;;;;;;1.83;1.73;;;8.20;99.90;;;;;;5093194;28;20193;-72
2021/10/24 00:40:57;;;;;;;5.50;2.03;;;8.20;99.90;;;;;;5093276;28;20258;-73
2021/10/24 00:43:23;;;;;;;2.90;2.17;;;8.20;99.90;;;;;;5092495;28;20167;-73
2021/10/24 00:45:48;;;;;;;3.20;2.13;;;8.20;99.90;;;;;;5093263;28;20191;-72
2021/10/24 00:48:14;;;;;;;3.90;2.63;;;8.20;99.90;;;;;;5093016;28;20200;-73
2021/10/24 00:50:41;;;;;;;6.67;3.87;;;8.20;99.90;;;;;;5093147;28;20205;-73
2021/10/24 00:53:08;;;;;;;7.80;3.20;;;8.20;99.90;;;;;;5093049;28;20176;-73
2021/10/24 00:55:34;;;;;;;3.73;2.90;;;8.20;99.90;;;;;;5093141;28;20416;-74
2021/10/24 00:58:01;;;;;;;2.10;1.90;;;8.20;99.90;;;;;;5093029;28;20415;-73
2021/10/24 01:00:27;;;;;;;2.90;2.50;;;8.20;99.90;;;;;;5093073;28;20167;-73
2021/10/24 01:02:53;;;;;;;4.40;3.43;;;8.20;99.90;;;;;;5092724;28;20895;-73
2021/10/24 01:05:19;;;;;;;4.30;2.73;;;8.20;99.90;;;;;;5093260;28;20248;-71
2021/10/24 01:07:47;;;;;;;3.30;3.00;;;8.20;99.90;;;;;;5092829;28;20455;-73
2021/10/24 01:10:15;;;;;;;2.77;2.57;;;8.20;99.90;;;;;;5081252;28;20194;-71
2021/10/24 01:12:48;;;;;;;2.53;2.13;;;8.20;99.90;;;;;;5084970;28;20412;-72
2021/10/24 01:15:15;;;;;;;6.40;2.87;;;8.20;99.90;;;;;;5074699;28;20438;-74
2021/10/24 01:17:40;;;;;;;3.40;2.50;;;8.20;99.90;;;;;;5072560;28;20465;-74
2021/10/24 01:20:07;;;;;;;3.33;2.70;;;8.10;99.90;;;;;;5072434;28;20454;-73
2021/10/24 01:22:39;;;;;;;6.40;3.10;;;8.10;99.90;;;;;;5070856;28;20410;-73
2021/10/24 01:25:07;;;;;;;3.03;2.80;;;8.00;99.90;;;;;;5072170;28;20401;-73
2021/10/24 01:27:35;;;;;;;2.30;2.10;;;8.00;99.90;;;;;;5072319;28;20934;-73
2021/10/24 01:30:02;;;;;;;4.40;3.30;;;8.00;99.90;;;;;;5072260;28;20825;-73
2021/10/24 01:32:28;;;;;;;2.97;2.70;;;7.90;99.90;;;;;;5071981;28;20823;-74
2021/10/24 01:34:55;;;;;;;2.80;1.97;;;7.90;99.90;;;;;;5072195;28;20447;-72
2021/10/24 01:37:21;;;;;;;3.83;2.20;;;7.90;99.90;;;;;;5072243;28;20789;-73
2021/10/24 01:39:46;;;;;;;3.10;2.30;;;7.90;99.90;;;;;;5072048;28;20412;-73
2021/10/24 01:42:12;;;;;;;2.70;1.53;;;7.80;99.90;;;;;;5072403;28;20302;-72
2021/10/24 01:44:37;;;;;;;2.20;2.10;;;7.90;99.90;;;;;;5072081;28;20171;-73
2021/10/24 01:47:03;;;;;;;3.13;2.10;;;7.80;99.90;;;;;;5072083;28;20627;-73
2021/10/24 01:49:29;;;;;;;4.10;2.60;;;7.80;99.90;;;;;;5072281;28;20273;-72
2021/10/24 01:51:58;;;;;;;4.70;3.10;;;7.70;99.90;;;;;;5072099;28;20611;-73
2021/10/24 01:54:24;;;;;;;3.33;2.87;;;7.70;99.90;;;;;;5072369;28;20834;-72
2021/10/24 01:56:49;;;;;;;3.17;2.23;;;7.60;99.90;;;;;;5072037;28;20405;-72
2021/10/24 01:59:15;;;;;;;4.30;3.40;;;7.50;99.90;;;;;;5072116;28;20641;-72
2021/10/24 02:01:42;;;;;;;9.27;2.93;;;7.50;99.90;;;;;;5071870;28;20176;-70
2021/10/24 02:04:08;;;;;;;4.40;2.90;;;7.40;99.90;;;;;;5071968;28;20174;-73
2021/10/24 02:06:36;;;;;;;3.63;2.20;;;7.40;99.90;;;;;;5072019;28;20412;-73
2021/10/24 02:09:02;;;;;;;3.10;2.20;;;7.30;99.90;;;;;;5072478;28;20623;-73
2021/10/24 02:11:28;;;;;;;4.17;2.73;;;7.30;99.90;;;;;;5072087;28;20396;-73
2021/10/24 02:13:53;;;;;;;2.90;2.13;;;7.30;99.90;;;;;;5070742;28;20421;-73
2021/10/24 02:16:18;;;;;;;4.13;3.10;;;7.20;99.90;;;;;;5072082;28;20571;-71
2021/10/24 02:18:44;;;;;;;2.93;2.47;;;7.20;99.90;;;;;;5071872;28;20290;-73
2021/10/24 02:21:12;;;;;;;3.37;2.73;;;7.20;99.90;;;;;;5071955;28;20178;-73
2021/10/24 02:23:37;;;;;;;6.30;2.83;;;7.10;99.90;;;;;;5072160;28;20170;-72
2021/10/24 02:26:03;;;;;;;5.00;2.10;;;7.10;99.90;;;;;;5072175;28;20888;-71
2021/10/24 02:28:28;;;;;;;2.90;2.13;;;7.10;99.90;;;;;;5072335;28;20186;-73
2021/10/24 02:30:54;;;;;;;3.30;3.00;;;7.10;99.90;;;;;;5072010;28;20198;-73
2021/10/24 02:33:19;;;;;;;3.17;2.77;;;7.10;99.90;;;;;;5070767;28;20759;-70
2021/10/24 02:35:45;;;;;;;3.70;2.20;;;7.10;99.90;;;;;;5071673;28;20171;-70
2021/10/24 02:38:10;;;;;;;4.43;3.30;;;7.20;99.90;;;;;;5073096;28;20297;-71
2021/10/24 02:40:37;;;;;;;3.97;2.87;;;7.20;99.90;;;;;;5090321;28;20641;-70
2021/10/24 02:43:02;;;;;;;5.57;2.30;;;7.30;99.90;;;;;;5091542;28;20544;-70
2021/10/24 02:45:28;;;;;;;6.93;2.60;;;7.20;99.90;;;;;;5091507;28;20443;-70
2021/10/24 02:47:54;;;;;;;3.33;2.33;;;7.20;99.90;;;;;;5091377;28;20195;-70
2021/10/24 02:50:20;;;;;;;6.40;2.73;;;7.20;99.90;;;;;;5091526;28;20235;-70
2021/10/24 02:52:45;;;;;;;4.83;3.43;;;7.20;99.90;;;;;;5091435;28;20918;-70
2021/10/24 02:55:11;;;;;;;4.03;2.30;;;7.20;99.90;;;;;;5091306;28;20172;-70
2021/10/24 02:57:36;;;;;;;3.03;2.40;;;7.20;99.90;;;;;;5091525;28;20191;-70
2021/10/24 03:00:05;;;;;;;2.23;2.03;;;7.20;99.90;;;;;;5091635;28;20166;-70
2021/10/24 03:02:30;;;;;;;2.50;2.40;;;7.30;99.90;;;;;;5091454;28;20229;-71
2021/10/24 03:04:56;;;;;;;2.80;1.90;;;7.20;99.90;;;;;;5091346;28;20860;-71
2021/10/24 03:07:21;;;;;;;3.73;2.47;;;7.20;99.90;;;;;;5094563;28;20243;-70
2021/10/24 03:09:47;;;;;;;5.20;2.53;;;7.20;99.90;;;;;;5095111;28;20201;-69
2021/10/24 03:12:12;;;;;;;1.80;1.70;;;7.20;99.90;;;;;;5094887;28;20177;-70
2021/10/24 03:14:38;;;;;;;3.50;2.47;;;7.20;99.90;;;;;;5090720;28;20171;-70
2021/10/24 03:17:03;;;;;;;3.20;2.90;;;7.20;99.90;;;;;;5081852;28;20202;-70
2021/10/24 03:19:28;;;;;;;5.40;2.70;;;7.30;99.90;;;;;;5094680;28;20560;-70
2021/10/24 03:21:54;;;;;;;6.20;2.73;;;7.30;99.90;;;;;;5080445;28;20174;-70
2021/10/24 03:24:19;;;;;;;2.77;2.00;;;7.30;99.90;;;;;;5074409;28;20178;-70
2021/10/24 03:26:45;;;;;;;3.33;2.77;;;7.30;99.90;;;;;;5074416;28;20182;-70
2021/10/24 03:29:11;;;;;;;4.80;1.90;;;7.30;99.90;;;;;;5074394;28;20251;-70
2021/10/24 03:31:36;;;;;;;5.43;4.10;;;7.20;99.90;;;;;;5074303;28;20765;-70
2021/10/24 03:34:02;;;;;;;2.17;1.97;;;7.20;99.90;;;;;;5081559;28;20207;-70
2021/10/24 03:36:28;;;;;;;4.73;2.50;;;7.20;99.90;;;;;;5094298;28;20172;-70
2021/10/24 03:38:54;;;;;;;2.40;2.20;;;7.20;99.90;;;;;;5094548;28;20420;-70
2021/10/24 03:41:20;;;;;;;2.63;1.87;;;7.30;99.90;;;;;;5094845;28;20170;-70
2021/10/24 03:43:45;;;;;;;2.13;1.70;;;7.20;99.90;;;;;;5094501;28;20165;-70
2021/10/24 03:46:11;;;;;;;2.50;2.30;;;7.30;99.90;;;;;;5094425;28;20166;-70
2021/10/24 03:48:36;;;;;;;3.63;3.00;;;7.20;99.90;;;;;;5094564;28;20672;-70
2021/10/24 03:51:02;;;;;;;3.80;2.77;;;7.20;99.90;;;;;;5094141;28;20251;-70
2021/10/24 03:53:27;;;;;;;2.43;2.23;;;7.20;99.90;;;;;;5094211;28;20170;-70
2021/10/24 03:55:53;;;;;;;6.60;2.90;;;7.20;99.90;;;;;;5094267;28;20632;-69
2021/10/24 03:58:18;;;;;;;3.97;2.10;;;7.20;99.90;;;;;;5094244;28;20186;-70
2021/10/24 04:00:44;;;;;;;2.50;2.30;;;7.20;99.90;;;;;;5094134;28;20335;-70
2021/10/24 04:03:10;;;;;;;2.80;2.50;;;7.20;99.90;;;;;;5093981;28;20186;-70
2021/10/24 04:05:36;;;;;;;2.70;2.07;;;7.20;99.90;;;;;;5093874;28;20315;-70
2021/10/24 04:08:03;;;;;;;2.60;2.30;;;7.20;99.90;;;;;;5093974;28;20507;-70
2021/10/24 04:10:29;;;;;;;2.67;2.47;;;7.20;99.90;;;;;;5093776;28;20836;-70
2021/10/24 04:12:55;;;;;;;2.83;2.40;;;7.20;99.90;;;;;;5093847;28;20403;-70
2021/10/24 04:15:21;;;;;;;2.77;2.30;;;7.20;99.90;;;;;;5093833;28;20396;-70
2021/10/24 04:17:47;;;;;;;8.17;2.23;;;7.10;99.90;;;;;;5092557;28;20510;-70
2021/10/24 04:20:16;;;;;;;2.53;2.20;;;7.20;99.90;;;;;;5093568;28;20509;-70
2021/10/24 04:22:41;;;;;;;2.87;2.20;;;7.20;99.90;;;;;;5092537;28;20178;-70
2021/10/24 04:25:09;;;;;;;2.30;1.90;;;7.20;99.90;;;;;;5093813;28;20449;-70
2021/10/24 04:27:34;;;;;;;2.13;1.93;;;7.20;99.90;;;;;;5093781;28;20224;-70
2021/10/24 04:30:00;;;;;;;4.73;2.27;;;7.20;99.90;;;;;;5093449;28;20510;-70
2021/10/24 04:32:26;;;;;;;2.47;2.07;;;7.30;99.90;;;;;;5093564;28;20166;-70
2021/10/24 04:34:52;;;;;;;3.30;2.50;;;7.30;99.90;;;;;;5093480;28;20629;-70
2021/10/24 04:37:18;;;;;;;2.53;1.90;;;7.30;99.90;;;;;;5093309;28;20446;-70
2021/10/24 04:39:43;;;;;;;4.30;3.03;;;7.20;99.90;;;;;;5093397;28;20284;-70
2021/10/24 04:42:10;;;;;;;2.90;2.17;;;7.30;99.90;;;;;;5093317;28;20494;-70
2021/10/24 04:44:35;;;;;;;4.10;2.33;;;7.30;99.90;;;;;;5093202;28;20169;-70
2021/10/24 04:47:01;;;;;;;2.80;2.33;;;7.30;99.90;;;;;;5092100;28;20813;-70
2021/10/24 04:49:26;;;;;;;2.37;2.17;;;7.30;99.90;;;;;;5093523;28;20193;-70
2021/10/24 04:51:52;;;;;;;4.63;2.33;;;7.30;99.90;;;;;;5093453;28;20170;-70
2021/10/24 04:54:17;;;;;;;2.80;2.30;;;7.30;99.90;;;;;;5093043;28;20173;-70
2021/10/24 04:56:43;;;;;;;2.03;1.60;;;7.20;99.90;;;;;;5093199;28;20166;-70
2021/10/24 04:59:08;;;;;;;3.57;1.67;;;7.20;99.90;;;;;;5093768;28;20185;-70
2021/10/24 05:01:34;;;;;;;1.57;1.47;;;7.20;99.90;;;;;;5093413;28;20275;-70
2021/10/24 05:03:59;;;;;;;2.53;1.83;;;7.10;99.90;;;;;;5093011;28;20252;-71
2021/10/24 05:06:25;;;;;;;2.83;2.17;;;7.10;99.90;;;;;;5093071;28;20544;-70
2021/10/24 05:08:50;;;;;;;2.90;1.90;;;7.00;99.90;;;;;;5092880;28;20190;-70
2021/10/24 05:11:16;;;;;;;8.17;2.30;;;7.00;99.90;;;;;;5092970;28;20166;-70
2021/10/24 05:13:41;;;;;;;8.33;2.70;;;6.90;99.90;;;;;;5092661;28;20172;-70
2021/10/24 05:16:07;;;;;;;5.60;1.73;;;6.80;99.90;;;;;;5092426;28;20663;-70
2021/10/24 05:18:32;;;;;;;2.67;2.07;;;6.80;99.90;;;;;;5092335;28;20208;-70
2021/10/24 05:20:58;;;;;;;4.20;2.17;;;6.70;99.90;;;;;;5092205;28;20510;-70
2021/10/24 05:23:24;;;;;;;3.30;2.20;;;6.60;99.90;;;;;;5092457;28;20169;-70
2021/10/24 05:25:50;;;;;;;2.50;2.30;;;6.50;99.90;;;;;;5092986;28;20636;-70
2021/10/24 05:28:16;;;;;;;1.90;1.80;;;6.50;99.90;;;;;;5092489;28;20286;-70
2021/10/24 05:30:41;;;;;;;2.47;2.10;;;6.50;99.90;;;;;;5093034;28;20942;-70
2021/10/24 05:33:07;;;;;;;4.20;2.53;;;6.40;99.90;;;;;;5092662;28;20283;-70
2021/10/24 05:35:32;;;;;;;4.00;2.33;;;6.30;99.90;;;;;;5092723;28;20183;-70
2021/10/24 05:37:58;;;;;;;5.30;2.47;;;6.20;99.90;;;;;;5092451;28;20177;-70
2021/10/24 05:40:23;;;;;;;7.63;2.57;;;6.10;99.90;;;;;;5092466;28;20176;-70
2021/10/24 05:42:49;;;;;;;3.60;2.57;;;6.10;99.90;;;;;;5092135;28;20174;-70
2021/10/24 05:45:14;;;;;;;2.60;2.40;;;6.10;99.90;;;;;;5082450;28;20182;-71
2021/10/24 05:47:40;;;;;;;2.40;2.20;;;6.00;99.90;;;;;;5088205;28;20197;-71
2021/10/24 05:50:06;;;;;;;3.00;2.70;;;5.90;99.90;;;;;;5089307;28;20243;-71
2021/10/24 05:52:32;;;;;;;9.80;2.63;;;5.80;99.90;;;;;;5071808;28;20197;-71
2021/10/24 05:54:57;;;;;;;2.87;2.40;;;5.90;99.90;;;;;;5071737;28;20899;-71
2021/10/24 05:57:23;;;;;;;2.23;1.90;;;5.80;99.90;;;;;;5071791;28;20178;-71
2021/10/24 05:59:48;;;;;;;2.57;2.37;;;5.80;99.90;;;;;;5071819;28;20174;-71
2021/10/24 06:02:14;;;;;;;3.40;3.07;;;5.80;99.90;;;;;;5072224;28;20170;-71
2021/10/24 06:04:39;;;;;;;4.10;3.70;;;5.80;99.90;;;;;;5091698;28;20552;-71
2021/10/24 06:07:05;;;;;;;5.27;2.67;;;5.80;99.90;;;;;;5091835;28;20186;-71
2021/10/24 06:09:42;;;;;;;4.40;2.27;;;5.80;99.90;;;;;;5092062;28;20190;-71
2021/10/24 06:12:28;;;;;;;2.87;2.67;;;5.80;99.90;;;;;;5091932;28;20157;-71
2021/10/24 06:14:54;;;;;;;2.83;2.33;;;5.80;99.90;;;;;;5092024;28;20407;-71
2021/10/24 06:17:20;;;;;;;2.70;2.37;;;5.80;99.90;;;;;;5091667;28;20510;-70
2021/10/24 06:19:45;;;;;;;4.40;3.27;;;5.90;99.90;;;;;;5091700;28;20536;-70
2021/10/24 06:22:10;;;;;;;2.90;2.53;;;5.80;99.90;;;;;;5091633;28;20203;-70
2021/10/24 06:24:36;;;;;;;5.03;3.20;;;5.90;99.90;;;;;;5091772;28;20528;-69
2021/10/24 06:27:02;;;;;;;3.67;2.60;;;5.90;99.90;;;;;;5091622;28;20185;-70
2021/10/24 06:29:27;;;;;;;7.57;2.70;;;5.80;99.90;;;;;;5091634;28;20193;-70
2021/10/24 06:31:52;;;;;;;7.33;3.00;;;5.90;99.90;;;;;;5091709;28;20165;-70
2021/10/24 06:34:18;;;;;;;2.83;2.53;;;6.00;99.90;;;;;;5091885;28;20162;-70
2021/10/24 06:36:44;;;;;;;3.77;3.47;;;6.10;99.90;;;;;;5091689;28;20256;-70
2021/10/24 06:39:10;;;;;;;3.90;3.30;;;6.10;99.90;;;;;;5091630;28;20165;-70
2021/10/24 06:41:35;;;;;;;3.93;3.27;;;6.00;99.90;;;;;;5093290;28;20597;-70
2021/10/24 06:44:01;;;;;;;2.97;2.57;;;6.10;99.90;;;;;;5093208;28;20403;-70
2021/10/24 06:46:26;;;;;;;5.57;3.00;;;6.10;99.90;;;;;;5091580;28;20228;-70
2021/10/24 06:48:52;;;;;;;6.40;2.60;;;6.10;99.90;;;;;;5095139;28;20273;-70
2021/10/24 06:51:17;;;;;;;8.13;3.13;;;6.20;99.90;;;;;;5095511;28;20245;-70
2021/10/24 06:53:43;;;;;;;5.83;3.03;;;6.30;99.90;;;;;;5095941;28;20174;-71
2021/10/24 06:56:08;;;;;;;5.43;2.80;;;6.50;99.90;;;;;;5095653;28;20174;-71
2021/10/24 06:58:34;;;;;;;4.00;2.87;;;6.70;99.90;;;;;;5091150;28;20672;-71
2021/10/24 07:00:59;;;;;;;3.23;2.87;;;6.80;99.90;;;;;;5096266;28;20544;-71
2021/10/24 07:03:25;;;;;;;4.00;3.20;;;7.00;99.90;;;;;;5096349;28;20222;-71
2021/10/24 07:05:50;;;;;;;2.57;2.37;;;7.30;99.90;;;;;;5096408;28;20166;-71
2021/10/24 07:08:16;;;;;;;3.23;2.10;;;7.50;99.90;;;;;;5093685;28;20205;-70
2021/10/24 07:10:41;;;;;;;2.40;2.20;;;7.50;99.90;;;;;;5094818;28;20331;-70
2021/10/24 07:13:07;;;;;;;6.80;2.30;;;7.40;99.90;;;;;;5094077;28;20166;-70
2021/10/24 07:15:32;;;;;;;5.70;2.27;;;7.80;99.90;;;;;;5096044;28;20472;-70
2021/10/24 07:17:58;;;;;;;6.43;2.70;;;7.50;99.90;;;;;;5094883;28;20194;-69
2021/10/24 07:20:23;;;;;;;4.23;2.27;;;7.50;99.90;;;;;;5093722;28;20736;-71
2021/10/24 07:22:49;;;;;;;2.80;2.50;;;7.50;99.90;;;;;;5091634;28;20648;-70
2021/10/24 07:25:15;;;;;;;2.80;2.60;;;7.50;99.90;;;;;;5094457;28;20202;-70
2021/10/24 07:27:41;;;;;;;1.93;1.83;;;7.50;99.90;;;;;;5094511;28;20193;-71
2021/10/24 07:30:08;;;;;;;6.33;2.40;;;7.70;99.90;;;;;;5094579;28;20607;-70
2021/10/24 07:32:35;;;;;;;3.67;2.33;;;7.80;99.90;;;;;;5095686;28;20867;-70
2021/10/24 07:35:02;;;;;;;4.37;2.53;;;7.70;99.90;;;;;;5100317;28;20404;-69
2021/10/24 07:37:28;;;;;;;4.20;2.97;;;8.00;99.90;;;;;;5089074;28;20483;-69
2021/10/24 07:39:53;;;;;;;4.87;2.83;;;8.10;99.90;;;;;;5086781;28;20415;-69
2021/10/24 07:42:19;;;;;;;3.80;2.50;;;8.20;99.90;;;;;;5076683;28;20260;-70
2021/10/24 07:44:45;;;;;;;3.17;2.20;;;8.20;99.90;;;;;;5086665;28;20171;-70
2021/10/24 07:47:11;;;;;;;3.63;2.30;;;8.20;99.90;;;;;;5085947;28;20446;-70
2021/10/24 07:49:39;;;;;;;1.97;1.87;;;8.10;99.90;;;;;;5085545;28;20452;-70
2021/10/24 07:52:05;;;;;;;3.63;2.20;;;8.10;99.90;;;;;;5085581;28;20234;-70
2021/10/24 07:54:31;;;;;;;2.37;2.17;;;8.20;99.90;;;;;;5081423;28;20432;-70
2021/10/24 07:56:57;;;;;;;3.53;3.20;;;8.80;99.90;;;;;;5087689;28;20416;-70
2021/10/24 07:59:23;;;;;;;2.50;2.30;;;9.20;99.90;;;;;;5100083;28;20423;-69
2021/10/24 08:01:49;;;;;;;3.27;2.33;;;9.10;99.90;;;;;;5097108;28;20182;-70
2021/10/24 08:04:14;;;;;;;5.60;2.70;;;9.50;99.90;;;;;;5074127;28;20181;-70
2021/10/24 08:06:40;;;;;;;2.50;2.30;;;9.70;99.90;;;;;;5087697;28;20173;-70
2021/10/24 08:09:10;;;;;;;4.57;2.67;;;9.50;99.90;;;;;;5094440;28;20546;-70
2021/10/24 08:11:37;;;;;;;4.63;3.60;;;9.60;99.90;;;;;;5094580;28;20192;-70
2021/10/24 08:14:06;;;;;;;3.17;2.87;;;9.70;99.90;;;;;;5094201;28;20958;-70
2021/10/24 08:16:36;;;;;;;2.90;2.10;;;10.10;99.90;;;;;;5085196;28;20427;-70
2021/10/24 08:19:02;;;;;;;3.67;2.57;;;10.00;99.90;;;;;;5075235;28;20432;-70
2021/10/24 08:21:28;;;;;;;3.30;3.03;;;10.00;99.90;;;;;;5079041;28;20538;-70
2021/10/24 08:23:53;;;;;;;3.57;2.63;;;10.00;99.90;;;;;;5093255;28;20901;-70
2021/10/24 08:26:20;;;;;;;3.70;2.53;;;9.90;99.90;;;;;;5093600;28;20162;-69
2021/10/24 08:28:49;;;;;;;2.70;2.50;;;10.10;99.90;;;;;;5093214;28;20204;-70
2021/10/24 08:31:17;;;;;;;5.00;2.97;;;10.00;99.90;;;;;;5093366;28;20561;-70
2021/10/24 08:33:44;;;;;;;3.93;2.93;;;9.60;99.90;;;;;;5091415;28;20419;-69
2021/10/24 08:36:10;;;;;;;4.83;3.03;;;9.80;99.90;;;;;;5092466;28;20426;-69
2021/10/24 08:38:36;;;;;;;4.43;3.13;;;10.10;99.90;;;;;;5093045;28;20419;-69
2021/10/24 08:41:02;;;;;;;5.17;2.63;;;10.40;99.90;;;;;;5093241;28;20465;-69
2021/10/24 08:43:34;;;;;;;2.93;2.20;;;10.50;99.90;;;;;;5093129;28;20176;-71
2021/10/24 08:46:00;;;;;;;5.17;2.37;;;11.20;99.90;;;;;;5090285;28;20469;-70
2021/10/24 08:48:26;;;;;;;2.20;2.00;;;11.20;99.90;;;;;;5089730;28;20470;-71
2021/10/24 08:50:51;;;;;;;2.47;1.70;;;11.10;99.90;;;;;;5092838;28;20461;-72
2021/10/24 08:53:28;;;;;;;7.10;2.30;;;11.20;99.90;;;;;;5077401;28;20174;-70
2021/10/24 08:55:54;;;;;;;2.47;1.90;;;11.20;99.90;;;;;;5072693;28;20166;-70
2021/10/24 08:58:20;;;;;;;3.30;2.47;;;11.30;99.90;;;;;;5072677;28;21047;-70
2021/10/24 09:00:50;;;;;;;3.97;2.80;;;11.20;99.90;;;;;;5091218;28;20423;-71
2021/10/24 09:03:16;;;;;;;2.60;1.90;;;11.30;99.90;;;;;;5092145;28;20770;-70
2021/10/24 09:05:49;;;;;;;3.33;1.87;;;11.20;99.90;;;;;;5093971;28;20415;-70
2021/10/24 09:08:17;;;;;;;4.53;1.90;;;11.30;99.90;;;;;;5092169;28;20199;-70
2021/10/24 09:10:49;;;;;;;4.40;2.07;;;11.20;99.90;;;;;;5092267;28;20617;-70
2021/10/24 09:13:27;;;;;;;3.93;2.57;;;11.50;99.90;;;;;;5092046;28;20440;-70
2021/10/24 09:16:04;;;;;;;3.57;2.23;;;11.30;99.90;;;;;;5091908;28;20902;-70
2021/10/24 09:18:33;;;;;;;3.40;2.07;;;11.40;99.90;;;;;;5091835;28;20520;-70
2021/10/24 09:21:17;;;;;;;2.07;1.70;;;11.90;99.90;;;;;;5092092;28;20470;-70
2021/10/24 09:23:44;;;;;;;2.20;1.53;;;12.00;99.90;;;;;;5091761;28;20411;-70
2021/10/24 09:26:40;;;;;;;3.50;2.00;;;11.30;99.90;;;;;;5091697;28;20406;-70
2021/10/24 09:29:08;;;;;;;3.53;2.00;;;11.60;99.90;;;;;;5087120;28;20420;-70
2021/10/24 09:31:36;;;;;;;1.90;1.70;;;11.70;99.90;;;;;;5091516;28;20412;-70
2021/10/24 09:34:11;;;;;;;1.57;1.47;;;11.40;99.90;;;;;;5091544;28;20426;-69
2021/10/24 09:36:50;;;;;;;5.20;2.07;;;11.50;99.90;;;;;;5091662;28;20905;-70
2021/10/24 09:39:16;;;;;;;2.17;1.50;;;11.40;99.90;;;;;;5091692;28;20404;-70
2021/10/24 09:41:41;;;;;;;3.97;1.70;;;11.70;99.90;;;;;;5091604;28;20404;-69
2021/10/24 09:44:09;;;;;;;2.00;1.87;;;11.60;99.90;;;;;;5091535;28;20170;-69
2021/10/24 09:46:34;;;;;;;2.50;2.30;;;11.30;99.90;;;;;;5091573;28;20683;-70
2021/10/24 09:49:00;;;;;;;2.23;2.03;;;11.20;99.90;;;;;;5091471;28;20519;-70
2021/10/24 09:51:32;;;;;;;2.03;1.30;;;11.10;99.90;;;;;;5091386;28;20197;-69
2021/10/24 09:53:58;;;;;;;1.67;1.50;;;11.30;99.90;;;;;;5091549;28;20412;-71
2021/10/24 09:56:27;;;;;;;2.10;2.00;;;11.20;99.90;;;;;;5091645;28;20882;-75
2021/10/24 09:58:53;;;;;;;2.80;1.63;;;11.20;99.90;;;;;;5091421;28;20196;-72
2021/10/24 10:01:20;;;;;;;3.47;2.10;;;11.10;99.90;;;;;;5091382;28;20403;-69
2021/10/24 10:03:48;;;;;;;2.50;1.70;;;11.20;99.90;;;;;;5091115;28;20400;-68
2021/10/24 10:06:17;;;;;;;2.50;1.93;;;11.30;99.90;;;;;;5091100;28;20418;-69
2021/10/24 10:08:43;;;;;;;4.40;1.80;;;11.50;99.90;;;;;;5091183;28;20462;-69
2021/10/24 10:11:26;;;;;;;4.40;1.47;;;11.60;99.90;;;;;;5091440;28;20452;-71
2021/10/24 10:14:01;;;;;;;1.60;1.50;;;11.50;99.90;;;;;;5091461;28;20395;-70
2021/10/24 10:16:39;;;;;;;1.70;1.47;;;11.60;99.90;;;;;;5093396;28;20395;-72
2021/10/24 10:19:07;;;;;;;2.43;2.20;;;11.70;99.90;;;;;;5095573;28;20419;-70
2021/10/24 10:21:37;;;;;;;2.50;2.00;;;11.60;99.90;;;;;;5095431;28;20404;-70
2021/10/24 10:24:05;;;;;;;3.00;1.93;;;11.80;99.90;;;;;;5095500;28;20395;-71
2021/10/24 10:26:45;;;;;;;8.23;1.83;;;11.60;99.90;;;;;;5095367;28;20906;-70
2021/10/24 10:29:35;;;;;;;1.67;1.47;;;11.70;99.90;;;;;;5095447;28;20478;-70
2021/10/24 10:32:18;;;;;;;1.63;1.47;;;11.60;99.90;;;;;;5095326;28;20476;-71
2021/10/24 10:35:02;;;;;;;3.23;2.50;;;11.70;99.90;;;;;;5095292;28;20406;-70
2021/10/24 10:37:44;;;;;;;2.30;1.87;;;11.90;99.90;;;;;;5095015;28;20419;-70
2021/10/24 10:40:34;;;;;;;1.60;1.50;;;12.10;99.90;;;;;;5095312;28;20403;-70
2021/10/24 10:43:00;;;;;;;2.10;1.90;;;12.10;99.90;;;;;;5092236;28;20511;-70
2021/10/24 10:45:43;;;;;;;3.50;2.00;;;12.00;99.90;;;;;;5089697;28;20558;-70
2021/10/24 10:48:35;;;;;;;2.27;1.83;;;12.10;99.90;;;;;;5074945;28;20671;-69
2021/10/24 10:51:05;;;;;;;3.00;1.50;;;12.00;99.90;;;;;;5075012;28;20964;-70
2021/10/24 10:53:30;;;;;;;2.67;1.47;;;11.90;99.90;;;;;;5074953;28;20440;-71
2021/10/24 10:55:56;;;;;;;1.47;1.33;;;11.90;99.90;;;;;;5074787;28;20400;-70
2021/10/24 10:58:40;;;;;;;1.60;1.50;;;11.90;99.90;;;;;;5083948;28;20276;-70
2021/10/24 11:01:17;;;;;;;2.13;1.73;;;12.10;99.90;;;;;;5073892;28;20235;-70
2021/10/24 11:03:51;;;;;;;2.10;1.73;;;12.20;99.90;;;;;;5074437;28;20404;-70
2021/10/24 11:06:22;;;;;;;2.30;1.50;;;12.30;99.90;;;;;;5086012;28;20418;-70
2021/10/24 11:08:56;;;;;;;2.60;1.47;;;12.30;99.90;;;;;;5094725;28;20447;-70
2021/10/24 11:11:37;;;;;;;1.60;1.20;;;12.30;99.90;;;;;;5095144;28;20438;-69
2021/10/24 11:14:32;;;;;;;1.93;1.53;;;12.40;99.90;;;;;;5095112;28;20388;-70
2021/10/24 11:17:00;;;;;;;3.20;1.70;;;12.30;99.90;;;;;;5092035;28;20407;-69
2021/10/24 11:19:38;;;;;;;1.37;1.20;;;12.40;99.90;;;;;;5094800;28;20443;-69
2021/10/24 11:22:10;;;;;;;1.70;1.60;;;12.40;99.90;;;;;;5095018;28;20825;-70
2021/10/24 11:24:40;;;;;;;2.07;1.43;;;12.30;99.90;;;;;;5094499;28;20398;-69
2021/10/24 11:27:07;;;;;;;2.43;1.73;;;12.40;99.90;;;;;;5093758;28;20442;-70
2021/10/24 11:29:33;;;;;;;4.10;1.70;;;12.40;99.90;;;;;;5094187;28;20948;-70
2021/10/24 11:32:18;;;;;;;2.83;1.10;;;12.40;99.90;;;;;;5094004;28;20402;-70
2021/10/24 11:34:43;;;;;;;1.60;1.50;;;12.50;99.90;;;;;;5094013;28;20421;-70
2021/10/24 11:37:09;;;;;;;1.17;1.07;;;12.60;99.90;;;;;;5094221;28;21031;-69
2021/10/24 11:39:35;;;;;;;1.53;1.30;;;12.60;99.90;;;;;;5094250;28;20511;-70
2021/10/24 11:42:14;;;;;;;1.87;1.20;;;12.50;99.90;;;;;;5094083;28;20236;-69
2021/10/24 11:44:41;;;;;;;3.43;1.10;;;12.50;99.90;;;;;;5094427;28;20530;-69
2021/10/24 11:47:12;;;;;;;2.50;1.10;;;12.40;99.90;;;;;;5093832;28;20423;-70
2021/10/24 11:49:48;;;;;;;1.30;1.10;;;12.30;99.90;;;;;;5093967;28;20961;-70
2021/10/24 11:52:27;;;;;;;1.50;1.20;;;12.40;99.90;;;;;;5093712;28;20404;-71
2021/10/24 11:55:11;;;;;;;2.57;0.90;;;12.30;99.90;;;;;;5093645;28;20400;-69
2021/10/24 12:00:24;;;;;;;2.73;1.10;;;12.40;99.90;;;;;;5094641;28;20910;-69
2021/10/24 12:03:03;;;;;;;3.43;1.23;;;12.50;99.90;;;;;;5096687;28;20408;-70
2021/10/24 12:05:30;;;;;;;0.90;0.90;;;12.50;99.90;;;;;;5076295;28;20416;-70
2021/10/24 12:07:57;;;;;;;1.33;1.23;;;12.60;99.90;;;;;;5094175;28;20932;-70
2021/10/24 12:10:46;;;;;;;1.50;1.40;;;12.70;99.90;;;;;;5094202;28;20482;-71
2021/10/24 12:13:37;;;;;;;0.90;0.90;;;12.80;99.90;;;;;;5094276;28;20490;-71
2021/10/24 12:16:21;;;;;;;2.20;1.50;;;12.80;99.90;;;;;;5095217;28;20488;-71
2021/10/24 12:18:47;;;;;;;1.63;1.13;;;12.80;99.90;;;;;;5094097;28;20511;-70
2021/10/24 12:21:12;;;;;;;1.73;1.10;;;12.90;99.90;;;;;;5093878;28;20419;-71
2021/10/24 12:23:38;;;;;;;0.80;0.80;;;13.00;99.90;;;;;;5094121;28;20166;-71
2021/10/24 12:26:07;;;;;;;1.43;0.90;;;12.90;99.90;;;;;;5095235;28;20253;-71
2021/10/24 12:28:39;;;;;;;1.23;1.10;;;12.90;99.90;;;;;;5093900;28;20189;-71
2021/10/24 12:31:14;;;;;;;1.03;0.90;;;12.70;99.90;;;;;;5092333;28;20973;-71
2021/10/24 12:33:42;;;;;;;1.13;0.97;;;12.70;99.90;;;;;;5093579;28;20423;-70
2021/10/24 12:36:09;;;;;;;3.83;1.57;;;12.70;99.90;;;;;;5093782;28;20416;-70
2021/10/24 12:38:55;;;;;;;1.13;1.00;;;12.60;99.90;;;;;;5091717;28;20424;-70
2021/10/24 12:41:45;;;;;;;1.87;1.10;;;12.70;99.90;;;;;;5093516;28;20404;-69
2021/10/24 12:44:17;;;;;;;1.77;0.87;;;12.70;99.90;;;;;;5093615;28;20960;-69
2021/10/24 12:46:43;;;;;;;1.37;1.00;;;12.70;99.90;;;;;;5088813;28;20839;-70
2021/10/24 12:49:15;;;;;;;1.13;1.03;;;12.60;99.90;;;;;;5080368;28;20419;-70
2021/10/24 12:51:45;;;;;;;1.10;0.87;;;12.70;99.90;;;;;;5073377;28;20582;-70
2021/10/24 12:54:12;;;;;;;0.87;0.80;;;12.80;99.90;;;;;;5079483;28;20924;-70
2021/10/24 12:56:40;;;;;;;1.47;0.90;;;12.80;99.90;;;;;;5072651;28;20718;-70
2021/10/24 12:59:06;;;;;;;1.17;1.00;;;12.80;99.90;;;;;;5077742;28;20549;-70
2021/10/24 13:01:34;;;;;;;1.47;0.90;;;12.60;99.90;;;;;;5092758;28;20557;-70